createdAt,value
2023-05-04T00:00:08.396Z,16.67
2023-05-04T00:02:55.892Z,17.20
2023-05-04T00:05:23.453Z,17.77
2023-05-04T00:07:50.840Z,18.25
2023-05-04T00:10:18.468Z,16.45
2023-05-04T00:12:46.327Z,17.63
2023-05-04T00:15:13.954Z,16.73
2023-05-04T00:17:41.466Z,19.15
2023-05-04T00:20:10.128Z,16.77
2023-05-04T00:22:37.333Z,17.48
2023-05-04T00:25:06.404Z,16.02
2023-05-04T00:27:35.017Z,15.80
2023-05-04T00:30:03.043Z,16.90
2023-05-04T00:32:30.938Z,19.05
2023-05-04T00:34:59.745Z,17.52
2023-05-04T00:37:26.989Z,18.02
2023-05-04T00:39:54.470Z,17.95
2023-05-04T00:42:21.702Z,17.42
2023-05-04T00:44:49.166Z,16.90
2023-05-04T00:47:19.936Z,18.90
2023-05-04T00:49:47.756Z,18.05
2023-05-04T00:52:16.459Z,19.15
2023-05-04T00:54:46.404Z,17.88
2023-05-04T00:57:15.853Z,17.42
2023-05-04T00:59:43.387Z,20.45
2023-05-04T01:02:10.609Z,15.73
2023-05-04T01:04:38.251Z,19.30
2023-05-04T01:07:29.064Z,18.08
2023-05-04T01:10:04.907Z,19.98
2023-05-04T01:12:41.062Z,18.73
2023-05-04T01:15:12.354Z,18.55
2023-05-04T01:17:39.981Z,19.15
2023-05-04T01:20:09.449Z,17.10
2023-05-04T01:22:38.198Z,17.90
2023-05-04T01:25:07.797Z,19.58
2023-05-04T01:27:46.293Z,18.40
2023-05-04T01:30:17.070Z,19.40
2023-05-04T01:32:45.738Z,17.27
2023-05-04T01:35:13.781Z,18.70
2023-05-04T01:37:41.841Z,17.92
2023-05-04T01:40:09.701Z,19.35
2023-05-04T01:42:37.023Z,18.95
2023-05-04T01:45:04.978Z,18.92
2023-05-04T01:47:32.272Z,18.65
2023-05-04T01:49:59.818Z,20.00
2023-05-04T01:52:27.119Z,17.02
2023-05-04T01:54:54.630Z,18.27
2023-05-04T01:57:22.039Z,17.33
2023-05-04T01:59:49.786Z,17.63
2023-05-04T02:02:17.019Z,18.73
2023-05-04T02:04:44.718Z,17.10
2023-05-04T02:07:12.946Z,21.00
2023-05-04T02:09:40.521Z,15.88
2023-05-04T02:12:08.156Z,18.33
2023-05-04T02:14:36.257Z,17.38
2023-05-04T02:17:03.457Z,18.60
2023-05-04T02:19:31.332Z,20.50
2023-05-04T02:21:58.679Z,18.30
2023-05-04T02:24:26.264Z,20.58
2023-05-04T02:26:53.522Z,20.13
2023-05-04T02:29:21.185Z,18.60
2023-05-04T02:31:48.630Z,21.90
2023-05-04T02:34:16.256Z,22.15
2023-05-04T02:36:43.455Z,21.80
2023-05-04T02:39:11.054Z,23.42
2023-05-04T02:41:38.325Z,19.27
2023-05-04T02:44:05.859Z,18.92
2023-05-04T02:46:33.117Z,24.73
2023-05-04T02:49:00.892Z,22.90
2023-05-04T02:51:28.220Z,19.98
2023-05-04T02:53:55.907Z,20.15
2023-05-04T02:56:24.235Z,18.98
2023-05-04T02:58:51.743Z,19.60
2023-05-04T03:01:19.051Z,20.90
2023-05-04T03:03:46.677Z,18.40
2023-05-04T03:06:13.928Z,18.98
2023-05-04T03:08:41.496Z,22.30
2023-05-04T03:11:08.733Z,19.83
2023-05-04T03:13:36.240Z,19.88
2023-05-04T03:16:05.498Z,21.77
2023-05-04T03:21:18.284Z,19.30
2023-05-04T03:23:46.028Z,18.67
2023-05-04T03:26:13.300Z,19.42
2023-05-04T03:28:40.946Z,20.33
2023-05-04T03:31:08.175Z,19.30
2023-05-04T03:33:35.702Z,17.33
2023-05-04T03:36:03.081Z,15.90
2023-05-04T03:38:31.645Z,16.95
2023-05-04T03:40:58.861Z,19.08
2023-05-04T03:43:26.687Z,18.88
2023-05-04T03:45:53.965Z,20.17
2023-05-04T03:48:21.525Z,18.38
2023-05-04T03:50:48.772Z,17.50
2023-05-04T03:53:16.446Z,16.85
2023-05-04T03:55:43.767Z,16.92
2023-05-04T03:58:11.302Z,20.30
2023-05-04T04:00:38.575Z,14.57
2023-05-04T04:03:06.230Z,17.40
2023-05-04T04:05:33.647Z,17.60
2023-05-04T04:08:01.207Z,16.13
2023-05-04T04:10:28.573Z,16.60
2023-05-04T04:12:57.444Z,20.30
2023-05-04T04:15:24.744Z,18.25
2023-05-04T04:17:52.973Z,16.15
2023-05-04T04:20:20.382Z,16.85
2023-05-04T04:22:47.951Z,15.32
2023-05-04T04:25:15.280Z,18.65
2023-05-04T04:27:42.797Z,17.77
2023-05-04T04:30:10.863Z,15.18
2023-05-04T04:32:38.487Z,15.80
2023-05-04T04:35:06.942Z,16.02
2023-05-04T04:37:34.587Z,16.38
2023-05-04T04:40:02.522Z,15.55
2023-05-04T04:42:30.234Z,16.98
2023-05-04T04:44:57.596Z,15.65
2023-05-04T04:47:25.472Z,16.10
2023-05-04T04:49:52.925Z,14.70
2023-05-04T04:52:20.528Z,18.77
2023-05-04T04:54:47.752Z,16.23
2023-05-04T04:57:15.257Z,17.52
2023-05-04T04:59:42.591Z,18.60
2023-05-04T05:02:10.697Z,17.65
2023-05-04T05:04:39.801Z,22.15
2023-05-04T05:07:08.900Z,19.20
2023-05-04T05:09:36.312Z,17.27
2023-05-04T05:12:07.346Z,21.88
2023-05-04T05:14:35.165Z,18.23
2023-05-04T05:17:06.133Z,18.88
2023-05-04T05:19:37.172Z,16.80
2023-05-04T05:22:04.821Z,22.42
2023-05-04T05:24:32.220Z,15.45
2023-05-04T05:27:00.473Z,16.73
2023-05-04T05:29:27.869Z,19.48
2023-05-04T05:31:55.386Z,16.77
2023-05-04T05:34:22.968Z,17.02
2023-05-04T05:36:50.460Z,15.82
2023-05-04T05:39:20.080Z,13.00
2023-05-04T05:41:47.874Z,13.85
2023-05-04T05:44:15.142Z,17.88
2023-05-04T05:46:42.834Z,15.43
2023-05-04T05:49:10.258Z,17.25
2023-05-04T05:51:37.773Z,17.67
2023-05-04T05:54:05.053Z,14.57
2023-05-04T05:56:32.581Z,17.88
2023-05-04T05:58:59.851Z,18.90
2023-05-04T06:01:27.616Z,14.35
2023-05-04T06:03:55.075Z,13.60
2023-05-04T06:06:22.677Z,16.42
2023-05-04T06:08:49.932Z,15.10
2023-05-04T06:11:17.785Z,12.95
2023-05-04T06:13:45.217Z,17.63
2023-05-04T06:16:13.050Z,13.75
2023-05-04T06:18:40.340Z,12.80
2023-05-04T06:21:07.940Z,12.50
2023-05-04T06:23:36.566Z,14.27
2023-05-04T06:26:05.987Z,16.83
2023-05-04T06:28:34.220Z,12.93
2023-05-04T06:31:02.413Z,13.77
2023-05-04T06:33:29.884Z,17.08
2023-05-04T06:35:58.494Z,11.45
2023-05-04T06:38:25.815Z,13.13
2023-05-04T06:40:53.460Z,14.80
2023-05-04T06:43:20.728Z,13.80
2023-05-04T06:45:48.232Z,15.13
2023-05-04T06:48:15.561Z,17.75
2023-05-04T06:50:43.108Z,18.95
2023-05-04T06:53:11.719Z,12.85
2023-05-04T06:55:39.282Z,13.30
2023-05-04T06:58:06.929Z,13.98
2023-05-04T07:00:35.357Z,12.85
2023-05-04T07:03:02.643Z,11.63
2023-05-04T07:05:30.270Z,14.20
2023-05-04T07:07:58.897Z,12.85
2023-05-04T07:10:26.754Z,11.18
2023-05-04T07:12:54.247Z,13.68
2023-05-04T07:15:21.912Z,13.10
2023-05-04T07:17:49.821Z,11.82
2023-05-04T07:20:17.377Z,10.00
2023-05-04T07:22:44.760Z,12.07
2023-05-04T07:25:12.283Z,13.30
2023-05-04T07:27:40.352Z,14.90
2023-05-04T07:30:08.281Z,12.77
2023-05-04T07:32:35.604Z,12.60
2023-05-04T07:35:03.377Z,13.27
2023-05-04T07:37:30.622Z,11.13
2023-05-04T07:40:00.165Z,9.98
2023-05-04T07:42:29.003Z,13.70
2023-05-04T07:44:56.521Z,9.60
2023-05-04T07:47:24.708Z,10.82
2023-05-04T07:49:52.676Z,9.05
2023-05-04T07:52:19.936Z,8.40
2023-05-04T07:54:47.872Z,12.80
2023-05-04T07:57:15.314Z,9.82
2023-05-04T07:59:42.775Z,10.38
2023-05-04T08:02:10.322Z,9.38
2023-05-04T08:04:38.231Z,11.90
2023-05-04T08:07:05.590Z,8.65
2023-05-04T08:09:33.099Z,8.00
2023-05-04T08:12:02.552Z,10.07
2023-05-04T08:14:30.402Z,11.18
2023-05-04T08:16:57.650Z,11.23
2023-05-04T08:19:25.155Z,11.30
2023-05-04T08:21:53.099Z,10.25
2023-05-04T08:24:20.585Z,8.77
2023-05-04T08:26:55.913Z,10.10
2023-05-04T08:29:31.838Z,9.45
2023-05-04T08:32:00.528Z,10.65
2023-05-04T08:34:28.131Z,6.55
2023-05-04T08:36:55.468Z,8.57
2023-05-04T08:39:22.973Z,7.65
2023-05-04T08:41:50.370Z,9.00
2023-05-04T08:44:19.139Z,8.43
2023-05-04T08:46:53.663Z,7.28
2023-05-04T08:49:22.701Z,7.10
2023-05-04T08:51:51.299Z,6.75
2023-05-04T08:54:20.140Z,7.03
2023-05-04T08:56:47.942Z,7.97
2023-05-04T08:59:20.405Z,6.63
2023-05-04T09:01:57.409Z,9.05
2023-05-04T09:04:29.307Z,8.15
2023-05-04T09:06:57.869Z,7.60
2023-05-04T09:09:29.506Z,9.25
2023-05-04T09:11:56.922Z,8.23
2023-05-04T09:14:32.416Z,12.07
2023-05-04T09:17:01.271Z,7.18
2023-05-04T09:19:33.519Z,6.75
2023-05-04T09:22:01.495Z,7.32
2023-05-04T09:24:29.882Z,7.63
2023-05-04T09:27:11.417Z,6.93
2023-05-04T09:29:40.576Z,6.60
2023-05-04T09:32:13.417Z,8.10
2023-05-04T09:34:51.719Z,6.63
2023-05-04T09:37:22.366Z,6.18
2023-05-04T09:39:59.222Z,7.97
2023-05-04T09:42:26.961Z,6.20
2023-05-04T09:45:01.594Z,7.13
2023-05-04T09:47:36.279Z,6.55
2023-05-04T09:50:20.765Z,6.75
2023-05-04T09:52:49.939Z,7.03
2023-05-04T09:55:19.240Z,6.63
2023-05-04T09:57:49.484Z,5.70
2023-05-04T10:00:18.283Z,7.35
2023-05-04T10:02:46.703Z,6.68
2023-05-04T10:05:17.245Z,5.55
2023-05-04T10:07:45.058Z,5.45
2023-05-04T10:10:13.975Z,6.18
2023-05-04T10:12:41.437Z,5.90
2023-05-04T10:15:10.950Z,6.35
2023-05-04T10:18:00.164Z,6.03
2023-05-04T10:20:58.509Z,5.97
2023-05-04T10:23:44.556Z,5.88
2023-05-04T10:26:41.344Z,7.13
2023-05-04T10:29:26.133Z,4.82
2023-05-04T10:31:53.753Z,6.13
2023-05-04T10:34:32.605Z,4.95
2023-05-04T10:37:01.336Z,4.15
2023-05-04T10:39:33.517Z,6.28
2023-05-04T10:42:03.960Z,5.60
2023-05-04T10:44:37.598Z,5.80
2023-05-04T10:47:07.779Z,7.43
2023-05-04T10:49:35.964Z,5.32
2023-05-04T10:52:08.026Z,5.95
2023-05-04T10:54:36.592Z,4.88
2023-05-04T10:57:06.347Z,5.70
2023-05-04T10:59:36.029Z,5.78
2023-05-04T11:02:05.108Z,5.18
2023-05-04T11:04:33.438Z,4.18
2023-05-04T11:07:06.291Z,4.85
2023-05-04T11:09:42.550Z,6.20
2023-05-04T11:12:13.092Z,4.85
2023-05-04T11:14:43.087Z,4.18
2023-05-04T11:17:27.725Z,5.32
2023-05-04T11:19:56.136Z,4.78
2023-05-04T11:22:23.727Z,5.10
2023-05-04T11:24:51.481Z,4.15
2023-05-04T11:27:30.236Z,4.65
2023-05-04T11:29:59.667Z,4.70
2023-05-04T11:32:34.134Z,4.07
2023-05-04T11:35:02.273Z,5.25
2023-05-04T11:37:30.500Z,5.40
2023-05-04T11:39:58.180Z,4.95
2023-05-04T11:42:26.124Z,4.20
2023-05-04T11:44:55.761Z,4.75
2023-05-04T11:47:23.444Z,6.90
2023-05-04T11:49:51.090Z,4.63
2023-05-04T11:52:24.159Z,4.60
2023-05-04T11:54:57.064Z,3.67
2023-05-04T11:57:24.648Z,4.80
2023-05-04T11:59:51.988Z,4.72
2023-05-04T12:02:20.414Z,3.50
2023-05-04T12:04:47.865Z,2.92
2023-05-04T12:07:15.972Z,6.55
2023-05-04T12:09:49.852Z,4.10
2023-05-04T12:12:19.066Z,4.80
2023-05-04T12:14:54.163Z,3.70
2023-05-04T12:17:21.942Z,3.70
2023-05-04T12:19:56.430Z,3.58
2023-05-04T12:22:32.500Z,3.88
2023-05-04T12:25:00.322Z,4.53
2023-05-04T12:27:27.831Z,3.50
2023-05-04T12:29:55.158Z,5.72
2023-05-04T12:32:23.014Z,5.35
2023-05-04T12:34:50.394Z,4.72
2023-05-04T12:37:17.882Z,3.80
2023-05-04T12:39:46.170Z,4.72
2023-05-04T12:42:14.042Z,3.72
2023-05-04T12:44:42.246Z,4.40
2023-05-04T12:47:09.914Z,3.72
2023-05-04T12:49:37.232Z,5.22
2023-05-04T12:52:04.798Z,3.05
2023-05-04T12:54:32.264Z,4.47
2023-05-04T12:56:59.857Z,3.53
2023-05-04T12:59:27.082Z,5.18
2023-05-04T13:01:54.652Z,5.47
2023-05-04T13:04:21.946Z,4.38
2023-05-04T13:06:49.525Z,3.97
2023-05-04T13:09:16.722Z,4.60
2023-05-04T13:11:44.656Z,4.13
2023-05-04T13:14:13.429Z,4.68
2023-05-04T13:16:41.578Z,3.83
2023-05-04T13:19:08.858Z,3.75
2023-05-04T13:21:36.530Z,5.40
2023-05-04T13:24:03.903Z,3.13
2023-05-04T13:26:31.442Z,5.50
2023-05-04T13:28:58.989Z,3.85
2023-05-04T13:31:26.783Z,4.40
2023-05-04T13:33:54.098Z,3.83
2023-05-04T13:36:22.068Z,2.92
2023-05-04T13:38:49.436Z,3.38
2023-05-04T13:41:17.959Z,3.15
2023-05-04T13:43:45.496Z,3.08
2023-05-04T13:46:13.615Z,3.83
2023-05-04T13:48:40.980Z,3.33
2023-05-04T13:51:08.631Z,4.32
2023-05-04T13:53:35.875Z,3.33
2023-05-04T13:56:03.470Z,4.10
2023-05-04T13:58:30.814Z,3.42
2023-05-04T14:01:00.352Z,4.32
2023-05-04T14:03:29.219Z,5.18
2023-05-04T14:05:58.148Z,4.43
2023-05-04T14:08:25.859Z,3.15
2023-05-04T14:10:53.366Z,4.22
2023-05-04T14:13:20.643Z,2.83
2023-05-04T14:15:49.340Z,3.35
2023-05-04T14:18:17.046Z,3.95
2023-05-04T14:20:44.685Z,4.07
2023-05-04T14:23:11.944Z,3.22
2023-05-04T14:25:41.989Z,3.92
2023-05-04T14:28:09.381Z,3.70
2023-05-04T14:30:37.022Z,4.88
2023-05-04T14:33:04.290Z,3.55
2023-05-04T14:35:31.845Z,4.13
2023-05-04T14:37:59.214Z,3.65
2023-05-04T14:40:26.733Z,3.08
2023-05-04T14:42:54.007Z,3.42
2023-05-04T14:45:21.571Z,3.30
2023-05-04T14:47:48.895Z,3.50
2023-05-04T14:50:16.485Z,3.25
2023-05-04T14:52:44.012Z,3.95
2023-05-04T14:55:11.594Z,4.18
2023-05-04T14:57:39.034Z,3.20
2023-05-04T15:00:08.519Z,3.42
2023-05-04T15:02:36.482Z,6.35
2023-05-04T15:05:04.810Z,2.47
2023-05-04T15:07:32.055Z,2.58
2023-05-04T15:09:59.795Z,3.67
2023-05-04T15:12:27.774Z,4.20
2023-05-04T15:14:55.296Z,3.85
2023-05-04T15:17:22.601Z,4.35
2023-05-04T15:19:50.300Z,3.15
2023-05-04T15:22:17.560Z,3.28
2023-05-04T15:24:45.115Z,3.28
2023-05-04T15:27:12.341Z,4.38
2023-05-04T15:29:39.989Z,4.70
2023-05-04T15:32:07.278Z,4.75
2023-05-04T15:34:34.823Z,2.53
2023-05-04T15:37:02.101Z,3.90
2023-05-04T15:39:31.137Z,5.05
2023-05-04T15:41:58.370Z,4.35
2023-05-04T15:44:27.653Z,4.38
2023-05-04T15:46:54.916Z,3.80
2023-05-04T15:49:22.547Z,6.40
2023-05-04T15:51:50.162Z,6.18
2023-05-04T15:54:17.716Z,6.20
2023-05-04T15:56:44.965Z,5.22
2023-05-04T15:59:12.611Z,6.07
2023-05-04T16:01:40.027Z,6.85
2023-05-04T16:04:07.578Z,3.65
2023-05-04T16:06:34.819Z,5.28
2023-05-04T16:09:02.400Z,4.40
2023-05-04T16:11:30.486Z,7.05
2023-05-04T16:13:57.995Z,4.28
2023-05-04T16:16:25.942Z,5.93
2023-05-04T16:18:53.731Z,6.63
2023-05-04T16:21:21.228Z,4.75
2023-05-04T16:23:48.759Z,7.00
2023-05-04T16:26:15.983Z,5.72
2023-05-04T16:28:45.161Z,4.45
2023-05-04T16:31:12.492Z,5.05
2023-05-04T16:33:46.959Z,4.35
2023-05-04T16:36:14.924Z,5.03
2023-05-04T16:38:42.492Z,4.13
2023-05-04T16:41:09.990Z,4.03
2023-05-04T16:43:37.485Z,4.68
2023-05-04T16:46:04.975Z,4.88
2023-05-04T16:48:32.547Z,4.80
2023-05-04T16:50:59.825Z,6.40
2023-05-04T16:53:27.414Z,4.00
2023-05-04T16:55:54.719Z,4.22
2023-05-04T16:58:22.261Z,3.70
2023-05-04T17:00:49.501Z,7.60
2023-05-04T17:03:17.186Z,5.38
2023-05-04T17:05:44.564Z,3.25
2023-05-04T17:08:12.628Z,6.60
2023-05-04T17:10:39.995Z,6.93
2023-05-04T17:13:07.585Z,4.03
2023-05-04T17:15:35.144Z,3.78
2023-05-04T17:18:02.882Z,3.67
2023-05-04T17:20:32.000Z,5.18
2023-05-04T17:22:59.914Z,7.15
2023-05-04T17:25:27.242Z,3.33
2023-05-04T17:27:54.962Z,5.88
2023-05-04T17:30:22.397Z,4.15
2023-05-04T17:32:51.068Z,4.03
2023-05-04T17:35:25.161Z,3.72
2023-05-04T17:37:58.821Z,4.13
2023-05-04T17:40:27.595Z,4.40
2023-05-04T17:42:56.151Z,3.67
2023-05-04T17:45:23.585Z,4.30
2023-05-04T17:47:51.667Z,4.57
2023-05-04T17:50:19.417Z,6.88
2023-05-04T17:52:52.348Z,4.55
2023-05-04T17:55:19.958Z,4.43
2023-05-04T17:57:47.517Z,6.47
2023-05-04T18:00:15.415Z,3.40
2023-05-04T18:02:43.054Z,7.05
2023-05-04T18:05:10.771Z,5.70
2023-05-04T18:07:38.687Z,4.60
2023-05-04T18:10:06.903Z,5.40
2023-05-04T18:12:35.629Z,4.47
2023-05-04T18:15:08.229Z,3.88
2023-05-04T18:17:37.863Z,5.72
2023-05-04T18:20:08.068Z,6.38
2023-05-04T18:22:36.677Z,3.90
2023-05-04T18:25:04.249Z,6.65
2023-05-04T18:27:33.737Z,6.72
2023-05-04T18:30:04.898Z,6.75
2023-05-04T18:32:32.945Z,6.30
2023-05-04T18:35:01.373Z,5.80
2023-05-04T18:37:31.769Z,9.55
2023-05-04T18:39:59.224Z,7.60
2023-05-04T18:42:27.235Z,25.58
2023-05-04T18:44:54.760Z,7.40
2023-05-04T18:47:22.388Z,5.68
2023-05-04T18:49:52.132Z,4.72
2023-05-04T18:52:20.131Z,8.70
2023-05-04T18:54:47.418Z,7.68
2023-05-04T18:57:15.318Z,5.35
2023-05-04T18:59:42.565Z,6.72
2023-05-04T19:02:10.232Z,6.15
2023-05-04T19:04:37.487Z,5.50
2023-05-04T19:07:05.041Z,5.57
2023-05-04T19:09:32.791Z,7.50
2023-05-04T19:12:00.489Z,6.53
2023-05-04T19:14:30.355Z,6.78
2023-05-04T19:16:58.295Z,5.25
2023-05-04T19:19:25.985Z,5.70
2023-05-04T19:21:53.851Z,8.85
2023-05-04T19:24:21.487Z,4.82
2023-05-04T19:26:49.065Z,6.20
2023-05-04T19:29:17.628Z,6.78
2023-05-04T19:31:45.402Z,5.75
2023-05-04T19:34:12.866Z,7.72
2023-05-04T19:36:40.657Z,8.32
2023-05-04T19:39:09.798Z,4.72
2023-05-04T19:41:37.378Z,5.78
2023-05-04T19:44:10.061Z,5.40
2023-05-04T19:46:37.691Z,6.78
2023-05-04T19:49:04.978Z,5.90
2023-05-04T19:51:32.901Z,6.10
2023-05-04T19:54:00.651Z,7.45
2023-05-04T19:56:28.235Z,5.53
2023-05-04T19:58:55.470Z,6.05
2023-05-04T20:01:23.536Z,6.68
2023-05-04T20:03:50.937Z,7.25
2023-05-04T20:06:18.506Z,4.60
2023-05-04T20:08:45.859Z,6.50
2023-05-04T20:11:13.852Z,6.50
2023-05-04T20:13:42.502Z,5.20
2023-05-04T20:16:10.168Z,6.57
2023-05-04T20:18:37.463Z,4.85
2023-05-04T20:21:05.028Z,5.32
2023-05-04T20:23:32.282Z,5.55
2023-05-04T20:25:59.824Z,5.55
2023-05-04T20:28:27.087Z,6.70
2023-05-04T20:30:54.949Z,5.63
2023-05-04T20:33:22.527Z,10.05
2023-05-04T20:35:50.733Z,7.10
2023-05-04T20:38:18.082Z,5.25
2023-05-04T20:40:45.605Z,6.97
2023-05-04T20:43:13.067Z,6.45
2023-05-04T20:45:40.604Z,7.05
2023-05-04T20:48:07.990Z,7.43
2023-05-04T20:50:35.955Z,5.50
2023-05-04T20:53:03.228Z,20.95
2023-05-04T20:55:31.304Z,12.77
2023-05-04T20:57:58.835Z,9.88
2023-05-04T21:00:26.372Z,9.75
2023-05-04T21:02:54.651Z,9.45
2023-05-04T21:05:22.377Z,9.38
2023-05-04T21:07:51.996Z,14.93
2023-05-04T21:10:19.974Z,9.40
2023-05-04T21:12:47.335Z,8.02
2023-05-04T21:15:15.118Z,9.30
2023-05-04T21:17:42.476Z,8.93
2023-05-04T21:20:10.423Z,9.57
2023-05-04T21:22:37.940Z,8.05
2023-05-04T21:25:06.244Z,10.85
2023-05-04T21:27:34.053Z,14.40
2023-05-04T21:30:04.183Z,8.95
2023-05-04T21:32:31.536Z,9.88
2023-05-04T21:34:59.063Z,10.35
2023-05-04T21:37:26.871Z,8.07
2023-05-04T21:39:55.705Z,9.02
2023-05-04T21:42:23.788Z,10.05
2023-05-04T21:44:57.264Z,9.20
2023-05-04T21:47:24.779Z,8.55
2023-05-04T21:49:53.326Z,8.57
2023-05-04T21:52:20.868Z,8.45
2023-05-04T21:54:48.836Z,6.75
2023-05-04T21:57:16.160Z,9.55
2023-05-04T21:59:43.761Z,7.53
2023-05-04T22:02:10.989Z,7.85
2023-05-04T22:04:43.196Z,8.45
2023-05-04T22:07:10.900Z,9.73
2023-05-04T22:09:38.350Z,11.35
2023-05-04T22:12:06.022Z,7.85
2023-05-04T22:14:33.734Z,7.53
2023-05-04T22:17:01.466Z,8.73
2023-05-04T22:19:29.116Z,8.68
2023-05-04T22:21:56.474Z,10.15
2023-05-04T22:24:26.194Z,7.95
2023-05-04T22:26:53.439Z,7.82
2023-05-04T22:29:21.056Z,9.25
2023-05-04T22:31:48.363Z,7.28
2023-05-04T22:34:16.004Z,9.77
2023-05-04T22:36:43.191Z,7.55
2023-05-04T22:39:10.712Z,7.78
2023-05-04T22:41:37.966Z,7.30
2023-05-04T22:44:05.742Z,9.07
2023-05-04T22:46:33.057Z,8.93
2023-05-04T22:49:00.582Z,8.05
2023-05-04T22:51:28.461Z,8.60
2023-05-04T22:53:55.988Z,9.40
2023-05-04T22:56:23.283Z,7.95
2023-05-04T22:58:51.170Z,6.80
2023-05-04T23:01:18.529Z,8.98
2023-05-04T23:03:46.294Z,6.82
2023-05-04T23:06:13.689Z,6.97
2023-05-04T23:08:41.248Z,7.43
2023-05-04T23:11:08.460Z,7.07
2023-05-04T23:13:35.971Z,9.07
2023-05-04T23:16:03.953Z,7.07
2023-05-04T23:18:32.992Z,8.60
2023-05-04T23:21:01.182Z,7.68
2023-05-04T23:23:28.679Z,8.50
2023-05-04T23:25:56.094Z,5.78
2023-05-04T23:28:23.668Z,6.30
2023-05-04T23:30:51.068Z,6.70
2023-05-04T23:33:18.518Z,6.30
2023-05-04T23:35:46.196Z,7.18
2023-05-04T23:38:13.721Z,7.38
2023-05-04T23:40:40.970Z,6.07
2023-05-04T23:43:08.471Z,6.45
2023-05-04T23:45:35.733Z,6.63
2023-05-04T23:48:03.894Z,6.72
2023-05-04T23:50:31.126Z,6.18
2023-05-04T23:52:58.571Z,6.43
2023-05-04T23:55:26.220Z,6.22
2023-05-04T23:57:53.788Z,7.75
